Time;durP1;ratioP1;P1;durP2;ratioP2;P2;SDS_P1;SDS_P2;PMS_P1;PMS_P2;Temp;Humidity;BMP_temperature;BMP_pressure;BME280_temperature;BME280_humidity;BME280_pressure;Samples;Min_cycle;Max_cycle;Signal;HPM_P1;HPM_P2
2021/05/13 00:01:35;;;;;;;2.05;0.73;;;19.00;58.80;;;;;;4921040;29;20024;-62
2021/05/13 00:04:01;;;;;;;2.17;0.68;;;19.30;59.10;;;;;;4937765;29;20092;-62
2021/05/13 00:06:27;;;;;;;1.90;0.73;;;19.20;59.10;;;;;;4937898;29;20441;-62
2021/05/13 00:08:57;;;;;;;1.73;0.60;;;19.00;58.90;;;;;;4936800;29;20083;-61
2021/05/13 00:11:32;;;;;;;1.85;0.95;;;19.30;59.10;;;;;;4920758;29;20055;-61
2021/05/13 00:14:00;;;;;;;1.45;0.65;;;19.00;58.90;;;;;;4921874;29;20202;-62
2021/05/13 00:16:31;;;;;;;2.75;1.17;;;19.20;59.10;;;;;;4937623;29;20028;-62
2021/05/13 00:18:59;;;;;;;2.20;1.00;;;19.20;59.10;;;;;;4937716;29;20429;-62
2021/05/13 00:21:25;;;;;;;3.28;0.70;;;19.20;59.10;;;;;;4937859;29;20023;-62
2021/05/13 00:23:51;;;;;;;1.60;0.75;;;19.20;59.10;;;;;;4937843;29;20503;-61
2021/05/13 00:26:24;;;;;;;1.40;0.60;;;18.90;59.00;;;;;;4937519;29;20506;-61
2021/05/13 00:28:50;;;;;;;2.50;0.80;;;19.10;59.10;;;;;;4937534;29;20027;-62
2021/05/13 00:31:16;;;;;;;1.85;0.75;;;18.90;59.00;;;;;;4937448;29;20024;-62
2021/05/13 00:33:41;;;;;;;2.17;0.80;;;19.60;59.40;;;;;;4937363;29;20088;-62
2021/05/13 00:36:07;;;;;;;3.08;0.90;;;19.20;59.20;;;;;;4937360;29;20020;-62
2021/05/13 00:38:32;;;;;;;2.42;0.95;;;19.10;85.30;;;;;;4920362;29;20039;-62
2021/05/13 00:40:58;;;;;;;2.65;0.88;;;19.50;59.40;;;;;;4937186;29;20020;-62
2021/05/13 00:43:23;;;;;;;2.20;0.80;;;19.20;59.30;;;;;;4937231;29;20107;-61
2021/05/13 00:45:49;;;;;;;1.95;0.70;;;19.10;59.20;;;;;;4937151;29;20055;-61
2021/05/13 00:48:17;;;;;;;3.33;1.27;;;19.00;85.60;;;;;;4937373;29;20043;-62
2021/05/13 00:50:43;;;;;;;1.52;0.80;;;19.10;59.20;;;;;;4937176;29;20496;-62
2021/05/13 00:53:10;;;;;;;1.65;0.70;;;18.90;59.10;;;;;;4937256;29;20027;-61
2021/05/13 00:55:37;;;;;;;1.58;0.68;;;19.10;59.50;;;;;;4937082;29;20050;-61
2021/05/13 00:58:06;;;;;;;1.45;0.70;;;19.00;59.20;;;;;;4936800;29;20028;-61
2021/05/13 01:00:37;;;;;;;2.90;1.10;;;18.80;59.10;;;;;;4936933;29;20106;-62
2021/05/13 01:03:04;;;;;;;0.95;0.60;;;18.80;59.10;;;;;;4936903;29;20393;-61
2021/05/13 01:05:31;;;;;;;1.60;0.95;;;19.10;59.30;;;;;;4936801;29;20039;-61
2021/05/13 01:07:58;;;;;;;2.22;0.85;;;19.00;58.80;;;;;;4937036;29;20032;-62
2021/05/13 01:10:25;;;;;;;1.50;0.75;;;19.00;59.20;;;;;;4936799;29;20473;-62
2021/05/13 01:12:52;;;;;;;2.10;0.80;;;19.00;59.20;;;;;;4936727;29;20031;-62
2021/05/13 01:16:09;;;;;;;2.05;0.70;;;18.80;59.20;;;;;;4936672;29;20028;-61
2021/05/13 01:20:33;;;;;;;1.13;0.70;;;18.80;59.20;;;;;;4936352;29;20385;-62
2021/05/13 01:23:00;;;;;;;2.75;0.90;;;19.10;59.30;;;;;;4936776;29;20028;-61
2021/05/13 01:25:27;;;;;;;2.30;1.02;;;18.70;59.10;;;;;;4936382;29;20015;-62
2021/05/13 01:27:57;;;;;;;1.55;0.90;;;18.70;59.20;;;;;;4936611;29;20031;-61
2021/05/13 01:30:22;;;;;;;;;;;19.00;59.40;;;;;;4937018;29;20062;-61
2021/05/13 01:32:48;;;;;;;1.88;0.75;;;18.80;59.20;;;;;;4936533;29;19942;-61
2021/05/13 01:35:14;;;;;;;1.95;0.80;;;18.70;59.20;;;;;;4936551;29;20102;-61
2021/05/13 01:37:39;;;;;;;2.60;1.38;;;18.90;59.30;;;;;;4936189;29;20039;-62
2021/05/13 01:40:05;;;;;;;1.38;0.90;;;19.10;59.50;;;;;;4936169;29;20039;-62
2021/05/13 01:42:31;;;;;;;1.98;0.80;;;18.90;59.30;;;;;;4936428;29;20028;-61
2021/05/13 01:44:57;;;;;;;1.83;0.80;;;18.90;59.40;;;;;;4936043;29;20026;-61
2021/05/13 01:47:22;;;;;;;2.05;0.93;;;19.50;59.70;;;;;;4919074;29;20024;-61
2021/05/13 01:49:49;;;;;;;2.50;0.60;;;19.00;59.40;;;;;;4935937;29;20031;-61
2021/05/13 01:52:15;;;;;;;2.22;1.15;;;18.70;59.30;;;;;;4935953;29;20117;-61
2021/05/13 01:54:40;;;;;;;1.77;0.93;;;18.90;59.40;;;;;;4918932;29;20035;-62
2021/05/13 01:57:07;;;;;;;2.03;1.00;;;18.60;59.20;;;;;;4935850;29;20031;-62
2021/05/13 01:59:33;;;;;;;1.92;0.73;;;18.80;59.40;;;;;;4935889;29;20103;-61
2021/05/13 02:01:59;;;;;;;3.35;1.13;;;18.90;85.20;;;;;;4918760;29;20032;-62
2021/05/13 02:04:26;;;;;;;2.28;1.05;;;18.50;59.20;;;;;;4935637;29;20056;-62
2021/05/13 02:06:52;;;;;;;3.50;1.10;;;18.70;60.00;;;;;;4935690;29;20024;-61
2021/05/13 02:09:18;;;;;;;2.78;0.90;;;18.60;59.30;;;;;;4935738;29;20338;-61
2021/05/13 02:11:43;;;;;;;1.58;0.80;;;18.80;59.40;;;;;;4935682;29;20027;-62
2021/05/13 02:14:09;;;;;;;1.65;0.65;;;18.80;59.40;;;;;;4935623;29;20059;-61
2021/05/13 02:16:34;;;;;;;2.15;0.73;;;19.10;59.70;;;;;;4935513;29;20020;-62
2021/05/13 02:19:00;;;;;;;2.40;1.17;;;18.60;59.40;;;;;;4935848;29;20381;-61
2021/05/13 02:21:26;;;;;;;2.25;1.10;;;18.80;59.50;;;;;;4935544;29;20083;-62
2021/05/13 02:23:51;;;;;;;3.00;1.40;;;18.80;59.50;;;;;;4935743;29;20030;-61
2021/05/13 02:26:20;;;;;;;2.83;1.15;;;18.90;59.50;;;;;;4935529;29;20095;-62
2021/05/13 02:28:46;;;;;;;1.48;0.95;;;18.80;59.40;;;;;;4935686;29;20041;-61
2021/05/13 02:31:12;;;;;;;3.38;0.90;;;18.50;59.30;;;;;;4935260;29;20544;-62
2021/05/13 02:33:37;;;;;;;0.95;0.65;;;18.80;59.50;;;;;;4934959;29;20035;-61
2021/05/13 02:36:04;;;;;;;2.17;0.90;;;18.50;59.30;;;;;;4918402;29;20024;-62
2021/05/13 02:38:29;;;;;;;3.15;0.93;;;18.70;59.40;;;;;;4935425;29;20032;-62
2021/05/13 02:40:55;;;;;;;1.80;0.60;;;18.70;59.50;;;;;;4918143;29;20115;-61
2021/05/13 02:43:21;;;;;;;1.25;0.82;;;18.60;59.40;;;;;;4935491;29;20038;-62
2021/05/13 02:45:47;;;;;;;2.42;0.80;;;18.50;59.30;;;;;;4935456;29;20418;-62
2021/05/13 02:48:12;;;;;;;1.15;0.70;;;18.70;85.20;;;;;;4935160;29;20063;-61
2021/05/13 02:50:38;;;;;;;2.35;1.10;;;18.70;59.50;;;;;;4935213;29;20118;-61
2021/05/13 02:53:04;;;;;;;1.50;1.00;;;18.70;59.50;;;;;;4935484;29;20040;-62
2021/05/13 02:55:29;;;;;;;2.13;0.85;;;18.70;59.50;;;;;;4935222;29;20041;-61
2021/05/13 02:57:56;;;;;;;2.78;1.08;;;18.70;59.50;;;;;;4935120;29;20062;-62
2021/05/13 03:00:28;;;;;;;1.75;1.00;;;18.40;59.40;;;;;;4935152;29;20030;-62
2021/05/13 03:02:54;;;;;;;2.08;0.80;;;18.50;59.40;;;;;;4935377;29;20061;-61
2021/05/13 03:05:25;;;;;;;2.65;0.80;;;18.60;59.50;;;;;;4934955;29;20501;-61
2021/05/13 03:07:53;;;;;;;1.60;0.85;;;18.70;59.50;;;;;;4935018;29;20495;-62
2021/05/13 03:10:22;;;;;;;3.53;0.98;;;18.40;59.40;;;;;;4934968;29;20039;-61
2021/05/13 03:12:51;;;;;;;2.47;0.90;;;18.60;59.50;;;;;;4935021;29;20477;-61
2021/05/13 03:15:17;;;;;;;2.38;0.82;;;18.40;59.40;;;;;;4934984;29;20020;-62
2021/05/13 03:17:43;;;;;;;1.17;0.80;;;18.40;59.40;;;;;;4917896;29;20562;-61
2021/05/13 03:20:12;;;;;;;1.48;0.60;;;18.60;59.50;;;;;;4935236;29;20101;-61
2021/05/13 03:22:38;;;;;;;1.23;0.70;;;18.60;59.50;;;;;;4934960;29;20035;-61
2021/05/13 03:25:06;;;;;;;1.95;0.95;;;18.40;59.50;;;;;;4935143;29;20034;-61
2021/05/13 03:30:08;;;;;;;1.20;0.70;;;18.40;59.50;;;;;;4934985;29;20028;-62
2021/05/13 03:32:33;;;;;;;1.42;0.80;;;18.60;59.60;;;;;;4935010;29;20038;-62
2021/05/13 03:34:59;;;;;;;1.38;0.82;;;18.40;59.50;;;;;;4935109;29;20032;-62
2021/05/13 03:37:27;;;;;;;2.08;0.90;;;18.30;59.40;;;;;;4935061;29;20048;-62
2021/05/13 03:39:56;;;;;;;3.30;0.93;;;18.40;59.50;;;;;;4917674;29;20031;-62
2021/05/13 03:42:22;;;;;;;1.58;0.88;;;18.50;59.60;;;;;;4934827;29;20392;-62
2021/05/13 03:44:48;;;;;;;2.13;0.90;;;18.30;59.40;;;;;;4937898;29;20024;-62
2021/05/13 03:47:14;;;;;;;2.58;1.15;;;18.30;59.50;;;;;;4938537;29;20023;-61
2021/05/13 03:49:40;;;;;;;2.70;1.10;;;18.30;59.50;;;;;;4938430;29;20035;-61
2021/05/13 03:52:05;;;;;;;1.52;1.00;;;18.40;59.60;;;;;;4938155;29;20024;-62
2021/05/13 03:54:31;;;;;;;1.90;0.70;;;18.50;59.60;;;;;;4938436;29;20038;-62
2021/05/13 03:56:57;;;;;;;2.58;1.02;;;18.30;59.50;;;;;;4938296;29;20027;-62
2021/05/13 03:59:23;;;;;;;1.70;1.02;;;18.30;59.50;;;;;;4921040;29;20122;-62
2021/05/13 04:02:02;;;;;;;2.25;0.88;;;18.40;59.60;;;;;;4938315;29;20055;-62
2021/05/13 04:04:28;;;;;;;3.05;0.90;;;18.20;59.50;;;;;;4937774;29;20087;-61
2021/05/13 04:06:53;;;;;;;2.25;1.08;;;18.50;59.70;;;;;;4938027;29;20063;-62
2021/05/13 04:09:19;;;;;;;2.80;1.00;;;18.30;59.50;;;;;;4938074;29;20034;-61
2021/05/13 04:11:45;;;;;;;2.33;1.23;;;18.50;59.70;;;;;;4938123;29;20022;-62
2021/05/13 04:14:10;;;;;;;2.45;1.00;;;18.40;59.60;;;;;;4937815;29;20058;-61
2021/05/13 04:16:39;;;;;;;2.92;1.17;;;18.30;59.50;;;;;;4920606;29;20086;-61
2021/05/13 04:19:05;;;;;;;2.03;0.70;;;18.20;59.50;;;;;;4920699;29;20083;-62
2021/05/13 04:21:31;;;;;;;1.10;0.90;;;18.40;59.60;;;;;;4937976;29;20024;-62
2021/05/13 04:23:57;;;;;;;1.20;0.85;;;18.20;59.50;;;;;;4937851;29;20107;-61
2021/05/13 04:26:23;;;;;;;1.77;0.90;;;18.20;59.50;;;;;;4937832;29;20083;-61
2021/05/13 04:28:49;;;;;;;1.27;0.70;;;18.40;59.60;;;;;;4937488;29;20079;-61
2021/05/13 04:31:15;;;;;;;2.22;0.90;;;18.20;59.50;;;;;;4937778;29;20016;-61
2021/05/13 04:33:40;;;;;;;3.92;1.00;;;18.60;59.80;;;;;;4937729;29;20456;-61
2021/05/13 04:36:06;;;;;;;3.38;1.08;;;18.40;59.70;;;;;;4937731;29;20099;-61
2021/05/13 04:38:33;;;;;;;1.10;1.00;;;18.20;59.60;;;;;;4920310;29;20038;-62
2021/05/13 04:40:59;;;;;;;2.58;1.00;;;18.20;59.50;;;;;;4937369;29;20028;-61
2021/05/13 04:43:30;;;;;;;0.85;0.68;;;18.40;59.70;;;;;;4937357;29;20370;-62
2021/05/13 04:45:56;;;;;;;1.83;0.93;;;18.20;59.60;;;;;;4921420;29;20105;-62
2021/05/13 04:48:25;;;;;;;2.10;0.73;;;18.10;59.50;;;;;;4937061;29;20032;-61
2021/05/13 04:50:51;;;;;;;1.60;0.82;;;18.20;59.60;;;;;;4937439;29;20026;-62
2021/05/13 04:53:16;;;;;;;2.35;1.10;;;18.20;85.90;;;;;;4920137;29;20098;-62
2021/05/13 04:55:42;;;;;;;1.40;0.88;;;18.10;59.60;;;;;;4936588;29;20023;-62
2021/05/13 04:58:08;;;;;;;2.00;0.95;;;18.40;59.80;;;;;;4937059;29;20434;-61
2021/05/13 05:00:35;;;;;;;1.63;0.90;;;18.40;59.80;;;;;;4937339;29;20433;-62
2021/05/13 05:03:01;;;;;;;3.42;1.13;;;18.20;59.60;;;;;;4937053;29;20135;-62
2021/05/13 05:05:26;;;;;;;2.50;1.10;;;18.10;59.60;;;;;;4936782;29;20531;-62
2021/05/13 05:07:52;;;;;;;1.88;1.10;;;18.30;59.70;;;;;;4936929;29;20095;-62
2021/05/13 05:10:18;;;;;;;1.90;0.88;;;18.20;59.70;;;;;;4919956;29;20027;-62
2021/05/13 05:12:44;;;;;;;1.75;0.88;;;18.10;59.70;;;;;;4936894;29;20041;-61
2021/05/13 05:15:10;;;;;;;1.60;1.00;;;18.80;60.00;;;;;;4936810;29;20055;-62
2021/05/13 05:17:36;;;;;;;1.80;1.25;;;18.30;59.80;;;;;;4936676;29;20036;-62
2021/05/13 05:20:02;;;;;;;3.05;1.30;;;18.30;59.80;;;;;;4936871;29;20020;-62
2021/05/13 05:22:27;;;;;;;1.40;0.88;;;18.30;59.80;;;;;;4937030;29;20028;-62
2021/05/13 05:24:53;;;;;;;2.28;1.02;;;18.10;59.70;;;;;;4936593;29;20059;-62
2021/05/13 05:27:19;;;;;;;2.55;1.25;;;18.20;59.70;;;;;;4936582;29;20088;-62
2021/05/13 05:29:44;;;;;;;1.48;0.93;;;18.10;59.70;;;;;;4936506;29;20035;-62
2021/05/13 05:32:10;;;;;;;1.60;0.90;;;18.10;59.70;;;;;;4936724;29;20039;-62
2021/05/13 05:34:36;;;;;;;1.38;1.00;;;18.40;59.90;;;;;;4936751;29;20058;-62
2021/05/13 05:37:05;;;;;;;3.47;1.00;;;18.30;59.80;;;;;;4936496;29;20079;-61
2021/05/13 05:39:31;;;;;;;4.03;0.90;;;18.30;60.00;;;;;;4935310;29;20453;-61
2021/05/13 05:41:56;;;;;;;1.83;1.00;;;18.30;85.70;;;;;;4936106;29;20501;-62
2021/05/13 05:44:23;;;;;;;1.00;0.80;;;18.30;59.80;;;;;;4936177;29;20028;-62
2021/05/13 05:46:49;;;;;;;1.92;0.95;;;18.30;59.80;;;;;;4936058;29;20024;-62
2021/05/13 05:49:15;;;;;;;3.70;0.70;;;18.10;59.70;;;;;;4935915;29;20079;-62
2021/05/13 05:51:40;;;;;;;1.42;0.65;;;18.30;59.90;;;;;;4936373;29;20027;-62
2021/05/13 05:54:06;;;;;;;3.75;0.80;;;18.20;59.80;;;;;;4918879;29;20468;-62
2021/05/13 05:56:32;;;;;;;2.63;0.80;;;18.50;60.10;;;;;;4936083;29;20031;-62
2021/05/13 05:58:57;;;;;;;2.45;0.70;;;18.40;60.00;;;;;;4935914;29;20401;-61
2021/05/13 06:01:23;;;;;;;3.28;1.10;;;18.20;85.90;;;;;;4935882;29;20108;-62
2021/05/13 06:03:49;;;;;;;3.30;1.23;;;18.40;60.00;;;;;;4918801;29;20416;-62
2021/05/13 06:06:15;;;;;;;3.58;1.50;;;;;;;;;;4935460;29;20389;-62
2021/05/13 06:08:40;;;;;;;1.30;0.93;;;18.40;60.20;;;;;;4918172;29;20035;-62
2021/05/13 06:11:06;;;;;;;3.38;1.20;;;18.30;61.00;;;;;;4935674;29;20469;-62
2021/05/13 06:13:32;;;;;;;1.52;0.85;;;18.40;87.00;;;;;;4935577;29;20031;-62
2021/05/13 06:15:57;;;;;;;1.27;0.75;;;18.40;60.90;;;;;;4935642;29;20024;-62
2021/05/13 06:18:23;;;;;;;2.25;0.80;;;18.20;60.70;;;;;;4935591;29;20087;-61
2021/05/13 06:20:48;;;;;;;3.75;0.90;;;18.40;60.60;;;;;;4935481;29;20393;-61
2021/05/13 06:23:15;;;;;;;1.15;0.80;;;18.40;60.50;;;;;;4935452;29;20504;-61
2021/05/13 06:25:41;;;;;;;2.42;0.65;;;18.20;60.30;;;;;;4935723;29;20482;-62
2021/05/13 06:28:07;;;;;;;1.02;0.68;;;18.20;60.30;;;;;;4935357;29;20063;-61
2021/05/13 06:30:33;;;;;;;2.30;0.95;;;18.20;60.30;;;;;;4935691;29;20384;-61
2021/05/13 06:32:59;;;;;;;0.70;0.60;;;18.50;60.50;;;;;;4935333;29;20024;-62
2021/05/13 06:35:24;;;;;;;2.78;0.90;;;18.30;60.30;;;;;;4935573;29;20020;-61
2021/05/13 06:37:50;;;;;;;1.17;0.70;;;18.40;60.40;;;;;;4935306;29;20067;-62
2021/05/13 06:40:16;;;;;;;1.92;0.85;;;18.50;60.40;;;;;;4935248;29;20024;-62
2021/05/13 06:42:42;;;;;;;1.08;0.60;;;18.50;60.30;;;;;;4935517;29;20096;-62
2021/05/13 06:45:09;;;;;;;1.35;0.75;;;18.30;86.00;;;;;;4935514;29;20506;-62
2021/05/13 06:47:35;;;;;;;1.05;0.60;;;18.50;60.30;;;;;;4935361;29;20122;-61
2021/05/13 06:50:01;;;;;;;1.90;0.80;;;18.40;60.20;;;;;;4935211;29;20051;-62
2021/05/13 06:52:27;;;;;;;1.75;1.02;;;18.30;60.20;;;;;;4935134;29;20039;-62
2021/05/13 06:54:52;;;;;;;0.98;0.80;;;18.30;60.20;;;;;;4935409;29;20018;-62
2021/05/13 06:57:18;;;;;;;1.45;0.63;;;18.60;60.30;;;;;;4935358;29;20035;-62
2021/05/13 06:59:45;;;;;;;1.98;0.90;;;18.40;60.40;;;;;;4918229;29;20115;-61
2021/05/13 07:02:11;;;;;;;0.95;0.80;;;18.60;60.50;;;;;;4935139;29;20028;-62
2021/05/13 07:04:37;;;;;;;1.13;0.68;;;18.70;60.40;;;;;;4934944;29;20051;-62
2021/05/13 07:07:03;;;;;;;2.15;0.90;;;18.50;60.30;;;;;;4935092;29;20023;-61
2021/05/13 07:09:30;;;;;;;1.95;0.73;;;18.90;60.50;;;;;;4935324;29;20131;-61
2021/05/13 07:11:55;;;;;;;1.65;1.10;;;18.40;60.20;;;;;;4935082;29;20099;-60
2021/05/13 07:14:21;;;;;;;1.50;1.00;;;18.50;60.10;;;;;;4935103;29;20562;-60
2021/05/13 07:16:48;;;;;;;1.98;1.05;;;18.50;60.00;;;;;;4935262;29;20079;-60
2021/05/13 07:19:13;;;;;;;2.90;1.23;;;18.50;59.90;;;;;;4937378;29;20107;-59
2021/05/13 07:21:39;;;;;;;2.13;0.80;;;18.60;60.20;;;;;;4938717;29;20103;-60
2021/05/13 07:24:05;;;;;;;4.80;1.05;;;18.50;60.20;;;;;;4938765;29;20035;-60
2021/05/13 07:26:31;;;;;;;5.53;1.23;;;18.70;60.00;;;;;;4938840;29;20019;-60
2021/05/13 07:28:57;;;;;;;2.45;1.20;;;18.50;59.80;;;;;;4921543;29;20038;-60
2021/05/13 07:31:22;;;;;;;2.05;1.25;;;20.20;60.60;;;;;;4938618;29;20024;-61
2021/05/13 07:33:48;;;;;;;2.72;1.27;;;18.60;59.70;;;;;;4938814;29;20024;-60
2021/05/13 07:36:14;;;;;;;3.17;1.13;;;18.80;59.60;;;;;;4938477;29;20024;-61
2021/05/13 07:38:40;;;;;;;2.08;1.00;;;18.60;59.40;;;;;;4938693;29;20393;-60
2021/05/13 07:41:06;;;;;;;1.40;1.00;;;18.80;59.30;;;;;;4938423;29;20016;-60
2021/05/13 07:43:33;;;;;;;1.52;0.85;;;18.70;59.10;;;;;;4938356;29;20567;-60
2021/05/13 07:46:00;;;;;;;6.57;1.23;;;19.30;59.30;;;;;;4938314;29;20024;-60
2021/05/13 07:48:27;;;;;;;1.95;0.75;;;18.80;58.90;;;;;;4938445;29;20078;-59
2021/05/13 07:50:53;;;;;;;1.67;0.73;;;19.20;59.10;;;;;;4921155;29;20028;-60
2021/05/13 07:53:19;;;;;;;2.47;0.88;;;19.40;59.20;;;;;;4938217;29;20079;-60
2021/05/13 07:55:45;;;;;;;2.67;1.00;;;19.00;59.00;;;;;;4921158;29;20103;-59
2021/05/13 07:58:10;;;;;;;3.83;1.05;;;18.90;59.80;;;;;;4938179;29;20039;-61
2021/05/13 08:00:36;;;;;;;1.65;0.80;;;18.90;59.40;;;;;;4921098;29;20023;-60
2021/05/13 08:03:02;;;;;;;1.95;1.00;;;19.00;59.80;;;;;;4921003;29;20090;-61
2021/05/13 08:05:27;;;;;;;5.60;0.88;;;19.80;60.10;;;;;;4937908;29;20054;-61
2021/05/13 08:07:53;;;;;;;5.45;0.98;;;19.40;59.70;;;;;;4937913;29;20043;-63
2021/05/13 08:10:19;;;;;;;4.38;1.10;;;19.20;59.90;;;;;;4937982;29;20039;-62
2021/05/13 08:12:44;;;;;;;4.20;0.98;;;19.40;59.60;;;;;;4937925;29;20090;-62
2021/05/13 08:15:12;;;;;;;1.95;0.85;;;19.50;59.50;;;;;;4938112;29;20589;-62
2021/05/13 08:17:42;;;;;;;4.03;1.27;;;19.70;59.60;;;;;;4938055;29;20106;-62
2021/05/13 08:20:12;;;;;;;3.97;0.98;;;20.50;60.20;;;;;;4938094;29;20062;-63
2021/05/13 08:22:38;;;;;;;5.90;0.80;;;19.90;60.00;;;;;;4937807;29;20024;-62
2021/05/13 08:25:06;;;;;;;2.45;0.90;;;20.10;59.90;;;;;;4937712;29;20504;-62
2021/05/13 08:27:33;;;;;;;4.90;0.95;;;20.00;59.70;;;;;;4937630;29;20024;-62
2021/05/13 08:30:00;;;;;;;4.10;0.90;;;20.10;59.70;;;;;;4936736;29;20118;-63
2021/05/13 08:32:26;;;;;;;3.22;0.80;;;20.00;59.50;;;;;;4937639;29;20028;-64
2021/05/13 08:34:55;;;;;;;5.13;0.50;;;20.40;59.30;;;;;;4937539;29;20027;-66
2021/05/13 08:37:21;;;;;;;10.55;0.80;;;20.00;59.40;;;;;;4937658;29;20036;-65
2021/05/13 08:39:47;;;;;;;2.33;0.90;;;20.00;59.10;;;;;;4937544;29;20433;-66
2021/05/13 08:42:13;;;;;;;2.08;0.90;;;20.30;59.10;;;;;;4937436;29;20055;-65
2021/05/13 08:44:43;;;;;;;5.22;0.75;;;20.40;59.20;;;;;;4937580;29;20473;-64
2021/05/13 08:47:10;;;;;;;;;;;20.40;59.20;;;;;;4937601;29;20496;-64
2021/05/13 08:49:36;;;;;;;1.42;0.70;;;21.00;59.90;;;;;;4937226;29;20355;-62
2021/05/13 08:52:08;;;;;;;2.67;0.88;;;20.50;59.00;;;;;;4937391;29;20032;-65
2021/05/13 08:54:34;;;;;;;4.13;0.90;;;21.20;58.90;;;;;;4937296;29;20032;-64
2021/05/13 08:57:00;;;;;;;1.48;0.70;;;20.40;59.00;;;;;;4937643;29;20127;-65
2021/05/13 08:59:27;;;;;;;3.40;0.60;;;20.60;58.90;;;;;;4937088;29;20067;-65
2021/05/13 09:01:58;;;;;;;7.90;0.90;;;20.40;58.80;;;;;;4904763;29;20024;-66
2021/05/13 09:04:35;;;;;;;4.88;0.98;;;20.40;58.80;;;;;;4937064;29;20083;-63
2021/05/13 09:07:21;;;;;;;0.95;0.70;;;20.50;59.00;;;;;;4937056;29;20040;-64
2021/05/13 09:10:06;;;;;;;3.55;0.85;;;20.70;58.90;;;;;;4936915;29;20035;-63
2021/05/13 09:12:35;;;;;;;1.27;0.60;;;20.80;58.90;;;;;;4936946;29;20027;-62
2021/05/13 09:15:20;;;;;;;1.63;0.80;;;20.70;58.80;;;;;;4937064;29;20106;-63
2021/05/13 09:17:51;;;;;;;2.45;0.73;;;20.90;59.00;;;;;;4936854;29;20035;-63
2021/05/13 09:20:32;;;;;;;2.78;0.70;;;20.90;58.80;;;;;;4936694;29;20027;-64
2021/05/13 09:23:28;;;;;;;3.28;0.80;;;20.90;58.70;;;;;;4936839;29;20094;-63
2021/05/13 09:26:07;;;;;;;0.93;0.60;;;21.00;58.70;;;;;;4936643;29;20023;-64
2021/05/13 09:28:33;;;;;;;1.38;0.63;;;21.30;58.80;;;;;;4919369;29;20036;-63
2021/05/13 09:30:59;;;;;;;1.23;0.60;;;21.10;59.00;;;;;;4936747;29;20039;-64
2021/05/13 09:33:29;;;;;;;1.48;0.60;;;20.80;58.50;;;;;;4936431;29;20031;-63
2021/05/13 09:35:54;;;;;;;2.72;0.60;;;21.10;59.20;;;;;;4919612;29;20062;-64
2021/05/13 09:38:33;;;;;;;1.98;0.80;;;20.90;58.90;;;;;;4936495;29;20633;-63
2021/05/13 09:41:01;;;;;;;2.25;0.70;;;21.20;59.00;;;;;;4918890;29;20046;-63
2021/05/13 09:43:34;;;;;;;1.55;0.60;;;20.90;59.00;;;;;;4936517;29;20024;-64
2021/05/13 09:46:02;;;;;;;3.40;0.90;;;21.10;58.40;;;;;;4936333;29;20481;-63
2021/05/13 09:48:42;;;;;;;2.97;0.70;;;21.30;58.70;;;;;;4936048;29;20034;-62
2021/05/13 09:51:27;;;;;;;2.15;0.75;;;21.30;58.60;;;;;;4936112;29;20024;-61
2021/05/13 09:54:17;;;;;;;1.20;0.50;;;21.40;57.80;;;;;;4935926;29;20036;-60
2021/05/13 09:56:49;;;;;;;0.70;0.65;;;21.40;57.50;;;;;;4935817;29;20099;-60
2021/05/13 09:59:22;;;;;;;1.20;0.77;;;21.40;57.20;;;;;;4936259;29;20433;-60
2021/05/13 10:01:52;;;;;;;2.40;0.95;;;21.20;57.10;;;;;;4935833;29;20109;-60
2021/05/13 10:04:18;;;;;;;1.40;0.70;;;20.20;56.40;;;;;;4935611;29;20051;-59
2021/05/13 10:06:44;;;;;;;0.82;0.70;;;20.70;56.80;;;;;;4936020;29;20111;-60
2021/05/13 10:09:16;;;;;;;1.33;0.68;;;21.30;57.10;;;;;;4935697;29;20106;-57
2021/05/13 10:11:53;;;;;;;1.55;0.40;;;21.30;57.00;;;;;;4919582;29;20023;-59
2021/05/13 10:14:21;;;;;;;3.53;0.63;;;21.10;56.90;;;;;;4935703;29;20385;-59
2021/05/13 10:16:48;;;;;;;2.28;0.75;;;21.10;56.80;;;;;;4935798;29;20103;-60
2021/05/13 10:19:42;;;;;;;3.35;0.68;;;21.50;57.10;;;;;;4918454;29;20485;-59
2021/05/13 10:22:11;;;;;;;4.07;0.70;;;21.30;56.80;;;;;;4921980;29;20016;-59
2021/05/13 10:24:36;;;;;;;1.52;0.60;;;21.80;57.20;;;;;;4935577;29;20118;-59
2021/05/13 10:27:18;;;;;;;1.45;0.60;;;21.20;56.90;;;;;;4935449;29;20544;-59
2021/05/13 10:29:44;;;;;;;1.77;0.70;;;21.30;56.90;;;;;;4918407;29;20446;-59
2021/05/13 10:32:20;;;;;;;1.23;0.63;;;20.20;56.20;;;;;;4935471;29;20055;-59
2021/05/13 10:34:59;;;;;;;2.85;0.93;;;21.30;56.70;;;;;;4935732;29;20020;-60
2021/05/13 10:37:34;;;;;;;1.63;0.70;;;21.30;56.60;;;;;;4935362;29;20031;-60
2021/05/13 10:40:08;;;;;;;3.03;0.60;;;21.10;56.50;;;;;;4918402;29;20027;-59
2021/05/13 10:42:35;;;;;;;2.78;1.17;;;21.10;56.60;;;;;;4918055;29;20024;-59
2021/05/13 10:45:21;;;;;;;2.78;0.75;;;21.10;56.60;;;;;;4918015;29;20038;-60
2021/05/13 10:48:09;;;;;;;1.60;0.77;;;21.30;56.60;;;;;;4920779;29;20547;-59
2021/05/13 10:50:46;;;;;;;0.93;0.55;;;21.30;56.40;;;;;;4935385;29;20028;-59
2021/05/13 10:53:33;;;;;;;1.75;0.70;;;21.30;56.40;;;;;;4934687;29;20028;-59
2021/05/13 10:56:23;;;;;;;2.63;0.80;;;21.40;56.40;;;;;;4935172;29;20090;-60
2021/05/13 10:58:57;;;;;;;1.58;0.82;;;21.30;56.30;;;;;;4935334;29;20035;-59
2021/05/13 11:01:28;;;;;;;2.28;0.73;;;21.40;56.30;;;;;;4935256;29;20050;-59
2021/05/13 11:04:27;;;;;;;3.05;0.63;;;21.50;56.40;;;;;;4935071;29;20107;-60
2021/05/13 11:06:58;;;;;;;1.83;0.98;;;21.40;56.30;;;;;;4935256;29;20070;-60
2021/05/13 11:12:27;;;;;;;3.13;0.75;;;21.40;72.40;;;;;;4934891;29;20027;-59
2021/05/13 11:17:56;;;;;;;4.05;0.75;;;21.50;56.30;;;;;;4935183;29;20170;-57
2021/05/13 11:20:23;;;;;;;3.42;0.90;;;21.30;56.00;;;;;;4934803;29;20027;-59
2021/05/13 11:23:08;;;;;;;2.28;1.10;;;21.30;56.80;;;;;;4935165;29;20024;-59
2021/05/13 11:25:44;;;;;;;6.90;1.05;;;21.30;58.30;;;;;;4934983;29;20035;-58
2021/05/13 11:28:50;;;;;;;3.45;1.23;;;21.10;59.00;;;;;;4934831;29;20377;-59
2021/05/13 11:31:20;;;;;;;5.72;1.30;;;21.30;58.30;;;;;;4935356;29;20023;-57
2021/05/13 11:33:58;;;;;;;4.70;1.27;;;21.20;83.40;;;;;;4917775;29;20491;-58
2021/05/13 11:36:37;;;;;;;5.82;1.65;;;21.30;58.30;;;;;;4934863;29;20039;-59
2021/05/13 11:39:09;;;;;;;9.75;1.80;;;21.30;57.80;;;;;;4917578;29;20044;-60
2021/05/13 11:41:35;;;;;;;2.97;1.58;;;21.20;57.30;;;;;;4934913;29;20020;-59
2021/05/13 11:44:01;;;;;;;3.97;1.70;;;21.20;57.50;;;;;;4935046;29;20358;-59
2021/05/13 11:46:29;;;;;;;3.28;1.20;;;21.10;80.40;;;;;;4917701;29;20083;-59
2021/05/13 11:48:55;;;;;;;3.90;1.55;;;21.70;55.60;;;;;;4934779;29;20155;-62
2021/05/13 11:51:29;;;;;;;6.43;1.95;;;20.90;52.70;;;;;;4934642;29;20024;-61
2021/05/13 11:54:00;;;;;;;7.28;1.52;;;21.00;52.30;;;;;;4934635;29;20481;-61
2021/05/13 11:56:27;;;;;;;5.72;1.40;;;21.10;52.80;;;;;;4934935;29;20043;-62
2021/05/13 11:58:54;;;;;;;3.95;1.33;;;21.10;55.00;;;;;;4934762;29;20032;-62
2021/05/13 12:01:32;;;;;;;3.17;1.38;;;21.00;55.40;;;;;;4934595;29;20114;-62
2021/05/13 12:04:08;;;;;;;3.03;1.35;;;21.00;55.50;;;;;;4934429;29;20047;-65
2021/05/13 12:06:47;;;;;;;2.55;1.20;;;21.00;55.40;;;;;;4920090;29;20039;-62
2021/05/13 12:09:14;;;;;;;2.20;1.23;;;20.90;55.20;;;;;;4937957;29;20035;-62
2021/05/13 12:11:41;;;;;;;5.13;1.20;;;21.00;55.60;;;;;;4937905;29;20031;-62
2021/05/13 12:14:11;;;;;;;3.72;1.40;;;20.90;55.70;;;;;;4937837;29;20035;-62
2021/05/13 12:16:36;;;;;;;4.25;1.40;;;20.90;55.30;;;;;;4937791;29;20119;-62
2021/05/13 12:19:07;;;;;;;4.35;1.20;;;20.60;51.70;;;;;;4937697;29;20122;-63
2021/05/13 12:21:36;;;;;;;5.50;1.58;;;20.80;53.30;;;;;;4938050;29;20378;-62
2021/05/13 12:24:03;;;;;;;3.45;1.40;;;20.90;53.30;;;;;;4937791;29;20111;-62
2021/05/13 12:26:37;;;;;;;4.38;1.48;;;20.70;52.40;;;;;;4937890;29;20036;-63
2021/05/13 12:29:05;;;;;;;6.70;1.92;;;21.00;53.50;;;;;;4937675;29;20030;-62
2021/05/13 12:31:36;;;;;;;3.60;1.48;;;20.70;52.50;;;;;;4937535;29;20023;-62
2021/05/13 12:34:05;;;;;;;3.05;1.52;;;20.70;52.70;;;;;;4937542;29;20028;-62
2021/05/13 12:36:34;;;;;;;4.97;1.38;;;20.80;52.40;;;;;;4937370;29;20020;-62
2021/05/13 12:39:00;;;;;;;3.67;1.63;;;20.50;53.00;;;;;;4936901;29;20397;-63
2021/05/13 12:41:26;;;;;;;7.72;2.08;;;21.10;54.00;;;;;;4920198;29;20047;-62
2021/05/13 12:44:17;;;;;;;7.95;1.63;;;20.70;78.40;;;;;;4920342;29;20032;-62
2021/05/13 12:46:48;;;;;;;3.88;1.65;;;20.50;53.50;;;;;;4937264;29;20031;-63
2021/05/13 12:49:19;;;;;;;3.95;1.40;;;20.70;53.50;;;;;;4937576;29;20103;-63
2021/05/13 12:52:01;;;;;;;2.20;1.08;;;20.40;53.30;;;;;;4920190;29;20023;-63
2021/05/13 12:54:27;;;;;;;6.10;2.17;;;20.70;54.60;;;;;;4937508;29;20433;-63
2021/05/13 12:57:18;;;;;;;7.57;1.80;;;21.20;52.10;;;;;;4937027;29;20107;-63
2021/05/13 12:59:54;;;;;;;4.25;1.45;;;20.40;51.80;;;;;;4937111;29;20027;-63
2021/05/13 13:02:24;;;;;;;4.28;1.60;;;20.60;51.80;;;;;;4937134;29;20055;-63
2021/05/13 13:04:52;;;;;;;4.38;1.52;;;20.50;52.00;;;;;;4936841;29;20048;-60
2021/05/13 13:07:20;;;;;;;5.35;1.77;;;21.20;52.70;;;;;;4937174;29;20020;-61